createdAt,value
2023-04-16T00:01:37.371Z,84.51
2023-04-16T00:04:04.075Z,84.61
2023-04-16T00:06:30.582Z,84.47
2023-04-16T00:08:56.996Z,84.70
2023-04-16T00:11:23.496Z,85.01
2023-04-16T00:13:49.843Z,85.33
2023-04-16T00:16:16.344Z,84.56
2023-04-16T00:18:45.286Z,84.65
2023-04-16T00:21:11.660Z,84.68
2023-04-16T00:23:38.186Z,84.72
2023-04-16T00:26:04.574Z,84.40
2023-04-16T00:28:30.981Z,85.04
2023-04-16T00:30:57.346Z,84.70
2023-04-16T00:33:23.741Z,85.00
2023-04-16T00:35:50.740Z,84.72
2023-04-16T00:38:17.200Z,84.85
2023-04-16T00:40:43.593Z,85.36
2023-04-16T00:43:09.943Z,85.78
2023-04-16T00:45:36.329Z,85.62
2023-04-16T00:48:03.820Z,85.09
2023-04-16T00:50:30.293Z,84.92
2023-04-16T00:52:56.673Z,84.69
2023-04-16T00:55:24.679Z,84.60
2023-04-16T00:57:51.031Z,84.69
2023-04-16T01:00:17.452Z,84.82
2023-04-16T01:02:44.473Z,84.26
2023-04-16T01:05:11.359Z,85.14
2023-04-16T01:07:37.726Z,84.88
2023-04-16T01:10:04.313Z,85.52
2023-04-16T01:12:31.140Z,84.98
2023-04-16T01:14:57.512Z,84.92
2023-04-16T01:17:23.875Z,84.79
2023-04-16T01:19:50.254Z,85.62
2023-04-16T01:22:17.263Z,84.74
2023-04-16T01:24:44.092Z,84.77
2023-04-16T01:27:10.763Z,85.17
2023-04-16T01:29:39.877Z,85.23
2023-04-16T01:32:06.283Z,85.89
2023-04-16T01:34:32.685Z,85.04
2023-04-16T01:36:59.080Z,84.91
2023-04-16T01:39:25.736Z,85.51
2023-04-16T01:41:52.110Z,85.45
2023-04-16T01:44:18.488Z,85.53
2023-04-16T01:46:45.156Z,85.22
2023-04-16T01:49:11.931Z,84.69
2023-04-16T01:51:38.530Z,85.56
2023-04-16T01:54:04.878Z,84.67
2023-04-16T01:56:31.266Z,85.67
2023-04-16T01:58:57.648Z,85.02
2023-04-16T02:01:24.272Z,85.08
2023-04-16T02:03:51.376Z,84.88
2023-04-16T02:06:17.792Z,84.45
2023-04-16T02:08:44.201Z,84.33
2023-04-16T02:11:10.792Z,84.26
2023-04-16T02:13:37.186Z,84.61
2023-04-16T02:16:08.942Z,85.04
2023-04-16T02:18:35.407Z,85.12
2023-04-16T02:21:02.260Z,85.63
2023-04-16T02:23:28.593Z,85.84
2023-04-16T02:25:57.174Z,85.80
2023-04-16T02:28:23.589Z,86.24
2023-04-16T02:30:49.917Z,86.08
2023-04-16T02:33:16.280Z,86.50
2023-04-16T02:35:43.206Z,86.63
2023-04-16T02:38:09.654Z,86.67
2023-04-16T02:40:36.221Z,86.61
2023-04-16T02:43:02.925Z,86.63
2023-04-16T02:45:31.437Z,86.67
2023-04-16T02:47:57.890Z,86.52
2023-04-16T02:50:24.275Z,86.78
2023-04-16T02:52:51.576Z,86.97
2023-04-16T02:55:17.928Z,87.24
2023-04-16T02:57:44.326Z,87.57
2023-04-16T03:00:13.456Z,87.12
2023-04-16T03:02:39.864Z,87.38
2023-04-16T03:05:06.571Z,88.11
2023-04-16T03:07:32.917Z,87.60
2023-04-16T03:10:00.631Z,87.50
2023-04-16T03:12:27.012Z,87.09
2023-04-16T03:14:53.410Z,87.95
2023-04-16T03:17:19.778Z,88.18
2023-04-16T03:19:46.280Z,87.68
2023-04-16T03:22:12.634Z,87.68
2023-04-16T03:24:38.971Z,87.69
2023-04-16T03:27:05.368Z,88.23
2023-04-16T03:29:31.706Z,88.45
2023-04-16T03:31:58.427Z,88.58
2023-04-16T03:34:24.961Z,88.40
2023-04-16T03:36:51.306Z,88.33
2023-04-16T03:39:17.684Z,89.10
2023-04-16T03:41:44.137Z,88.70
2023-04-16T03:44:10.631Z,88.75
2023-04-16T03:46:37.052Z,88.74
2023-04-16T03:49:03.466Z,88.71
2023-04-16T03:51:29.803Z,88.77
2023-04-16T03:53:56.360Z,88.51
2023-04-16T03:56:22.826Z,88.22
2023-04-16T03:58:49.607Z,88.52
2023-04-16T04:01:16.994Z,89.07
2023-04-16T04:03:43.606Z,89.09
2023-04-16T04:06:10.149Z,88.71
2023-04-16T04:08:37.991Z,89.32
2023-04-16T04:11:04.416Z,89.61
2023-04-16T04:13:30.834Z,89.80
2023-04-16T04:15:57.254Z,89.62
2023-04-16T04:18:23.640Z,89.48
2023-04-16T04:20:50.072Z,89.10
2023-04-16T04:23:16.447Z,89.68
2023-04-16T04:25:42.993Z,89.37
2023-04-16T04:28:09.458Z,89.57
2023-04-16T04:30:36.023Z,90.36
2023-04-16T04:33:02.596Z,90.02
2023-04-16T04:35:28.967Z,90.26
2023-04-16T04:37:55.649Z,89.63
2023-04-16T04:40:22.115Z,90.29
2023-04-16T04:42:48.511Z,90.21
2023-04-16T04:45:14.865Z,90.52
2023-04-16T04:47:41.517Z,90.82
2023-04-16T04:50:08.042Z,89.77
2023-04-16T04:52:34.372Z,90.05
2023-04-16T04:55:00.748Z,90.62
2023-04-16T04:57:27.614Z,90.35
2023-04-16T04:59:54.199Z,90.15
2023-04-16T05:02:20.866Z,90.81
2023-04-16T05:04:47.397Z,90.49
2023-04-16T05:07:13.793Z,90.67
2023-04-16T05:09:40.567Z,90.28
2023-04-16T05:12:07.118Z,90.71
2023-04-16T05:14:33.869Z,90.10
2023-04-16T05:17:00.604Z,90.37
2023-04-16T05:19:26.975Z,91.00
2023-04-16T05:21:53.415Z,90.74
2023-04-16T05:24:19.969Z,91.23
2023-04-16T05:26:46.380Z,90.66
2023-04-16T05:29:12.730Z,90.64
2023-04-16T05:31:39.168Z,90.81
2023-04-16T05:34:05.495Z,90.43
2023-04-16T05:36:31.852Z,90.73
2023-04-16T05:38:58.258Z,90.27
2023-04-16T05:41:24.620Z,89.87
2023-04-16T05:43:51.045Z,90.06
2023-04-16T05:46:17.490Z,90.00
2023-04-16T05:48:43.935Z,90.11
2023-04-16T05:51:10.380Z,90.74
2023-04-16T05:53:37.157Z,90.48
2023-04-16T05:56:03.483Z,90.90
2023-04-16T05:58:30.400Z,90.59
2023-04-16T06:01:05.559Z,90.46
2023-04-16T06:03:32.113Z,89.90
2023-04-16T06:05:58.663Z,89.81
2023-04-16T06:08:25.249Z,90.31
2023-04-16T06:10:51.602Z,89.97
2023-04-16T06:13:18.459Z,89.77
2023-04-16T06:15:46.078Z,89.77
2023-04-16T06:18:12.652Z,90.01
2023-04-16T06:20:39.150Z,89.71
2023-04-16T06:23:05.509Z,90.20
2023-04-16T06:25:31.984Z,89.92
2023-04-16T06:28:00.556Z,89.60
2023-04-16T06:30:26.899Z,89.94
2023-04-16T06:32:53.251Z,89.44
2023-04-16T06:35:20.373Z,89.89
2023-04-16T06:37:47.028Z,89.85
2023-04-16T06:40:13.354Z,90.58
2023-04-16T06:42:39.778Z,89.68
2023-04-16T06:45:06.512Z,89.85
2023-04-16T06:47:32.893Z,89.86
2023-04-16T06:49:59.408Z,90.49
2023-04-16T06:52:26.106Z,89.61
2023-04-16T06:54:52.490Z,89.75
2023-04-16T06:57:18.863Z,89.56
2023-04-16T06:59:45.197Z,90.01
2023-04-16T07:02:11.622Z,89.49
2023-04-16T07:04:40.696Z,89.23
2023-04-16T07:07:07.027Z,90.11
2023-04-16T07:09:33.435Z,89.89
2023-04-16T07:11:59.845Z,89.99
2023-04-16T07:14:26.305Z,89.42
2023-04-16T07:16:53.922Z,90.04
2023-04-16T07:19:21.583Z,89.82
2023-04-16T07:21:47.996Z,89.42
2023-04-16T07:24:14.408Z,90.70
2023-04-16T07:26:41.040Z,89.60
2023-04-16T07:29:07.523Z,89.74
2023-04-16T07:31:34.074Z,89.19
2023-04-16T07:34:00.663Z,89.25
2023-04-16T07:36:28.303Z,89.48
2023-04-16T07:38:54.908Z,88.84
2023-04-16T07:41:22.873Z,88.50
2023-04-16T07:43:49.648Z,89.17
2023-04-16T07:46:16.289Z,89.37
2023-04-16T07:48:42.946Z,88.71
2023-04-16T07:51:09.394Z,88.81
2023-04-16T07:53:36.058Z,88.28
2023-04-16T07:56:02.509Z,89.20
2023-04-16T07:58:28.869Z,88.39
2023-04-16T08:00:55.351Z,88.34
2023-04-16T08:03:22.183Z,87.54
2023-04-16T08:05:48.688Z,88.69
2023-04-16T08:08:15.037Z,86.96
2023-04-16T08:10:41.476Z,87.73
2023-04-16T08:13:07.818Z,87.71
2023-04-16T08:15:34.180Z,86.64
2023-04-16T08:18:02.561Z,86.97
2023-04-16T08:20:29.433Z,84.50
2023-04-16T08:22:55.973Z,85.39
2023-04-16T08:25:24.671Z,84.76
2023-04-16T08:27:51.074Z,84.95
2023-04-16T08:30:17.547Z,83.57
2023-04-16T08:32:43.994Z,83.60
2023-04-16T08:35:10.554Z,82.97
2023-04-16T08:37:36.961Z,80.28
2023-04-16T08:40:03.551Z,79.04
2023-04-16T08:42:33.450Z,79.73
2023-04-16T08:45:05.503Z,84.05
2023-04-16T08:47:31.895Z,77.79
2023-04-16T08:49:58.544Z,76.74
2023-04-16T08:52:25.016Z,78.78
2023-04-16T08:54:57.066Z,78.80
2023-04-16T08:57:23.589Z,78.39
2023-04-16T08:59:50.142Z,79.27
2023-04-16T09:02:16.618Z,77.47
2023-04-16T09:04:43.379Z,77.28
2023-04-16T09:07:09.844Z,78.67
2023-04-16T09:09:36.215Z,78.12
2023-04-16T09:12:02.615Z,77.08
2023-04-16T09:14:29.102Z,79.91
2023-04-16T09:16:55.693Z,79.53
2023-04-16T09:19:22.048Z,77.36
2023-04-16T09:21:48.520Z,77.81
2023-04-16T09:26:41.747Z,75.46
2023-04-16T09:29:09.777Z,75.08
2023-04-16T09:31:36.780Z,72.10
2023-04-16T09:34:03.238Z,73.52
2023-04-16T09:36:29.758Z,74.15
2023-04-16T09:38:57.789Z,74.77
2023-04-16T09:41:24.796Z,72.69
2023-04-16T09:43:58.386Z,72.04
2023-04-16T09:46:34.795Z,71.34
2023-04-16T09:49:10.653Z,72.34
2023-04-16T09:51:37.942Z,71.29
2023-04-16T09:54:04.774Z,71.55
2023-04-16T09:56:31.162Z,73.83
2023-04-16T09:59:00.187Z,73.59
2023-04-16T10:01:26.630Z,72.62
2023-04-16T10:03:53.873Z,72.41
2023-04-16T10:06:21.077Z,71.27
2023-04-16T10:08:50.664Z,72.05
2023-04-16T10:11:19.021Z,71.98
2023-04-16T10:13:45.608Z,72.83
2023-04-16T10:16:12.164Z,73.36
2023-04-16T10:18:41.994Z,71.58
2023-04-16T10:21:10.930Z,72.49
2023-04-16T10:23:37.249Z,72.12
2023-04-16T10:26:03.668Z,73.09
2023-04-16T10:28:30.588Z,72.31
2023-04-16T10:30:57.330Z,72.44
2023-04-16T10:33:25.031Z,72.69
2023-04-16T10:36:04.997Z,71.38
2023-04-16T10:38:33.636Z,70.39
2023-04-16T10:41:03.000Z,69.70
2023-04-16T10:43:30.381Z,69.20
2023-04-16T10:45:56.912Z,69.90
2023-04-16T10:48:27.462Z,70.15
2023-04-16T10:50:57.768Z,69.38
2023-04-16T10:53:25.023Z,68.87
2023-04-16T10:56:04.378Z,69.09
2023-04-16T10:58:31.167Z,69.56
2023-04-16T11:01:01.270Z,68.35
2023-04-16T11:03:31.858Z,69.33
2023-04-16T11:06:11.205Z,68.23
2023-04-16T11:08:51.133Z,67.11
2023-04-16T11:11:21.254Z,68.40
2023-04-16T11:13:47.893Z,67.28
2023-04-16T11:16:14.996Z,69.17
2023-04-16T11:18:47.689Z,67.91
2023-04-16T11:21:18.065Z,67.56
2023-04-16T11:23:51.296Z,68.48
2023-04-16T11:26:25.322Z,69.60
2023-04-16T11:28:51.888Z,69.33
2023-04-16T11:31:18.363Z,68.36
2023-04-16T11:33:44.883Z,68.15
2023-04-16T11:36:11.238Z,67.97
2023-04-16T11:38:37.788Z,68.53
2023-04-16T11:41:04.642Z,68.30
2023-04-16T11:43:32.354Z,68.45
2023-04-16T11:45:59.679Z,68.31
2023-04-16T11:48:26.547Z,68.71
2023-04-16T11:50:58.924Z,67.97
2023-04-16T11:53:25.706Z,67.56
2023-04-16T11:55:52.203Z,68.89
2023-04-16T11:58:20.111Z,68.88
2023-04-16T12:00:47.413Z,69.10
2023-04-16T12:03:14.132Z,69.97
2023-04-16T12:05:40.766Z,72.02
2023-04-16T12:08:08.059Z,73.21
2023-04-16T12:10:36.835Z,68.34
2023-04-16T12:13:12.415Z,68.49
2023-04-16T12:15:48.640Z,68.87
2023-04-16T12:18:19.362Z,68.54
2023-04-16T12:20:46.568Z,68.95
2023-04-16T12:23:22.557Z,67.21
2023-04-16T12:25:50.034Z,66.72
2023-04-16T12:28:27.302Z,67.29
2023-04-16T12:30:53.769Z,71.67
2023-04-16T12:33:21.191Z,67.90
2023-04-16T12:35:47.792Z,64.05
2023-04-16T12:38:15.398Z,66.27
2023-04-16T12:40:41.883Z,66.04
2023-04-16T12:43:09.518Z,65.47
2023-04-16T12:45:36.164Z,67.49
2023-04-16T12:48:02.988Z,68.35
2023-04-16T12:50:29.553Z,67.81
2023-04-16T12:52:56.392Z,67.68
2023-04-16T12:55:22.964Z,67.86
2023-04-16T12:57:50.254Z,67.71
2023-04-16T13:00:16.736Z,67.10
2023-04-16T13:02:43.291Z,67.27
2023-04-16T13:05:10.168Z,68.82
2023-04-16T13:07:36.529Z,68.49
2023-04-16T13:10:02.894Z,68.08
2023-04-16T13:12:29.381Z,67.94
2023-04-16T13:14:58.198Z,67.75
2023-04-16T13:17:24.630Z,67.93
2023-04-16T13:19:51.047Z,67.71
2023-04-16T13:22:17.564Z,67.83
2023-04-16T13:24:44.149Z,67.24
2023-04-16T13:27:11.378Z,66.91
2023-04-16T13:29:37.740Z,68.06
2023-04-16T13:32:04.223Z,67.92
2023-04-16T13:34:30.764Z,68.81
2023-04-16T13:36:57.101Z,68.14
2023-04-16T13:39:23.423Z,67.74
2023-04-16T13:41:50.401Z,68.81
2023-04-16T13:44:16.749Z,68.54
2023-04-16T13:46:47.534Z,68.65
2023-04-16T13:49:14.324Z,68.24
2023-04-16T13:51:43.632Z,68.78
2023-04-16T13:54:12.828Z,69.47
2023-04-16T13:56:39.325Z,69.76
2023-04-16T13:59:10.632Z,68.59
2023-04-16T14:01:37.189Z,69.66
2023-04-16T14:04:06.411Z,68.08
2023-04-16T14:06:33.977Z,69.46
2023-04-16T14:09:00.422Z,68.75
2023-04-16T14:11:26.892Z,69.21
2023-04-16T14:13:53.291Z,68.82
2023-04-16T14:16:19.901Z,69.25
2023-04-16T14:18:46.383Z,68.84
2023-04-16T14:21:13.106Z,68.58
2023-04-16T14:23:39.559Z,68.54
2023-04-16T14:26:06.023Z,67.44
2023-04-16T14:28:32.536Z,68.91
2023-04-16T14:30:58.919Z,69.84
2023-04-16T14:33:25.369Z,69.57
2023-04-16T14:35:52.200Z,69.85
2023-04-16T14:38:18.620Z,70.47
2023-04-16T14:40:45.055Z,71.14
2023-04-16T14:43:11.471Z,71.49
2023-04-16T14:45:38.979Z,71.24
2023-04-16T14:48:06.311Z,71.01
2023-04-16T14:50:36.577Z,71.35
2023-04-16T14:53:03.244Z,71.66
2023-04-16T14:55:29.639Z,71.75
2023-04-16T14:57:56.374Z,72.80
2023-04-16T15:00:22.798Z,72.20
2023-04-16T15:02:49.285Z,72.43
2023-04-16T15:05:15.761Z,72.09
2023-04-16T15:07:42.130Z,72.35
2023-04-16T15:10:08.932Z,73.03
2023-04-16T15:12:35.265Z,71.53
2023-04-16T15:15:01.675Z,72.08
2023-04-16T15:17:28.126Z,72.19
2023-04-16T15:19:54.539Z,71.77
2023-04-16T15:22:20.905Z,72.65
2023-04-16T15:24:49.835Z,72.61
2023-04-16T15:27:17.638Z,72.89
2023-04-16T15:29:48.060Z,73.99
2023-04-16T15:32:14.539Z,72.91
2023-04-16T15:34:41.496Z,72.91
2023-04-16T15:37:08.252Z,73.55
2023-04-16T15:39:34.622Z,73.48
2023-04-16T15:42:03.008Z,73.89
2023-04-16T15:44:31.415Z,73.43
2023-04-16T15:46:57.848Z,73.70
2023-04-16T15:49:24.759Z,73.20
2023-04-16T15:51:51.780Z,73.59
2023-04-16T15:54:18.505Z,74.15
2023-04-16T15:56:45.421Z,74.16
2023-04-16T15:59:12.357Z,74.57
2023-04-16T16:01:39.066Z,75.05
2023-04-16T16:04:06.951Z,74.12
2023-04-16T16:06:33.508Z,73.94
2023-04-16T16:08:59.882Z,74.33
2023-04-16T16:11:28.309Z,75.05
2023-04-16T16:13:54.802Z,74.60
2023-04-16T16:16:21.941Z,74.42
2023-04-16T16:18:48.719Z,75.09
2023-04-16T16:21:15.184Z,75.11
2023-04-16T16:23:42.021Z,75.47
2023-04-16T16:26:09.847Z,75.35
2023-04-16T16:28:39.301Z,76.22
2023-04-16T16:31:06.080Z,76.26
2023-04-16T16:33:32.822Z,75.76
2023-04-16T16:35:59.223Z,76.10
2023-04-16T16:38:25.882Z,76.50
2023-04-16T16:40:52.305Z,76.58
2023-04-16T16:43:18.698Z,75.87
2023-04-16T16:45:45.252Z,76.71
2023-04-16T16:48:11.560Z,77.03
2023-04-16T16:50:37.916Z,77.02
2023-04-16T16:53:04.352Z,76.46
2023-04-16T16:55:31.019Z,76.66
2023-04-16T16:57:59.815Z,76.54
2023-04-16T17:00:26.399Z,77.07
2023-04-16T17:02:53.245Z,77.06
2023-04-16T17:05:19.938Z,77.04
2023-04-16T17:07:46.718Z,76.75
2023-04-16T17:10:15.933Z,76.31
2023-04-16T17:12:42.283Z,76.35
2023-04-16T17:15:08.965Z,77.36
2023-04-16T17:17:35.402Z,76.57
2023-04-16T17:20:03.400Z,76.90
2023-04-16T17:22:30.022Z,78.29
2023-04-16T17:24:57.798Z,77.50
2023-04-16T17:27:24.536Z,77.62
2023-04-16T17:29:51.103Z,77.68
2023-04-16T17:32:17.607Z,77.92
2023-04-16T17:34:44.103Z,78.02
2023-04-16T17:37:10.523Z,77.65
2023-04-16T17:39:36.992Z,77.46
2023-04-16T17:42:03.977Z,77.99
2023-04-16T17:44:43.964Z,78.14
2023-04-16T17:47:10.748Z,77.97
2023-04-16T17:49:37.141Z,78.56
2023-04-16T17:52:03.613Z,78.60
2023-04-16T17:54:29.990Z,78.76
2023-04-16T17:56:57.452Z,78.91
2023-04-16T17:59:23.904Z,79.20
2023-04-16T18:01:50.407Z,79.21
2023-04-16T18:04:17.221Z,79.64
2023-04-16T18:06:44.147Z,78.85
2023-04-16T18:09:10.620Z,78.95
2023-04-16T18:11:37.205Z,79.46
2023-04-16T18:14:03.567Z,79.40
2023-04-16T18:16:29.912Z,79.82
2023-04-16T18:18:56.305Z,79.66
2023-04-16T18:21:22.840Z,79.87
2023-04-16T18:23:49.166Z,79.56
2023-04-16T18:26:18.597Z,79.59
2023-04-16T18:28:47.249Z,79.44
2023-04-16T18:31:13.916Z,79.83
2023-04-16T18:33:55.319Z,79.10
2023-04-16T18:36:23.587Z,80.00
2023-04-16T18:39:00.173Z,80.13
2023-04-16T18:41:48.005Z,80.43
2023-04-16T18:44:14.996Z,80.79
2023-04-16T18:46:41.363Z,79.45
2023-04-16T18:49:07.831Z,79.46
2023-04-16T18:51:34.169Z,79.44
2023-04-16T18:54:00.653Z,79.37
2023-04-16T18:56:28.847Z,79.28
2023-04-16T18:58:55.379Z,79.05
2023-04-16T19:01:21.788Z,79.41
2023-04-16T19:03:48.392Z,79.70
2023-04-16T19:06:14.764Z,79.32
2023-04-16T19:08:41.115Z,79.47
2023-04-16T19:11:07.550Z,80.19
2023-04-16T19:13:33.939Z,79.33
2023-04-16T19:16:02.275Z,79.86
2023-04-16T19:18:29.133Z,79.56
2023-04-16T19:20:59.715Z,79.77
2023-04-16T19:23:26.995Z,79.39
2023-04-16T19:25:53.648Z,79.39
2023-04-16T19:28:20.052Z,79.08
2023-04-16T19:30:46.705Z,79.92
2023-04-16T19:33:13.234Z,80.10
2023-04-16T19:35:42.096Z,79.39
2023-04-16T19:38:10.309Z,79.58
2023-04-16T19:40:37.309Z,79.51
2023-04-16T19:43:03.716Z,79.34
2023-04-16T19:45:30.403Z,79.56
2023-04-16T19:47:57.132Z,79.33
2023-04-16T19:50:23.971Z,80.58
2023-04-16T19:52:50.375Z,79.91
2023-04-16T19:55:16.934Z,80.19
2023-04-16T19:57:43.367Z,80.11
2023-04-16T20:00:11.419Z,79.70
2023-04-16T20:02:38.147Z,79.25
2023-04-16T20:05:04.726Z,80.59
2023-04-16T20:07:31.098Z,80.17
2023-04-16T20:09:57.521Z,79.21
2023-04-16T20:12:23.958Z,79.18
2023-04-16T20:14:50.407Z,79.55
2023-04-16T20:17:18.539Z,79.00
2023-04-16T20:19:47.291Z,79.30
2023-04-16T20:22:14.918Z,79.88
2023-04-16T20:24:47.775Z,79.42
2023-04-16T20:27:15.038Z,79.83
2023-04-16T20:29:41.770Z,80.04
2023-04-16T20:32:08.263Z,79.89
2023-04-16T20:34:34.658Z,80.76
2023-04-16T20:37:01.019Z,79.49
2023-04-16T20:39:27.444Z,80.05
2023-04-16T20:41:57.834Z,79.30
2023-04-16T20:44:26.173Z,80.55
2023-04-16T20:46:56.229Z,80.37
2023-04-16T20:49:22.856Z,79.80
2023-04-16T20:51:49.245Z,79.10
2023-04-16T20:54:15.783Z,79.39
2023-04-16T20:56:43.142Z,78.93
2023-04-16T20:59:10.293Z,80.16
2023-04-16T21:01:36.968Z,80.45
2023-04-16T21:04:03.636Z,80.33
2023-04-16T21:06:32.975Z,80.14
2023-04-16T21:09:01.744Z,80.48
2023-04-16T21:11:33.165Z,80.18
2023-04-16T21:13:59.508Z,81.09
2023-04-16T21:16:25.905Z,81.55
2023-04-16T21:18:52.391Z,80.88
2023-04-16T21:21:19.921Z,80.80
2023-04-16T21:23:46.435Z,81.54
2023-04-16T21:26:13.115Z,81.97
2023-04-16T21:28:39.708Z,81.96
2023-04-16T21:31:07.431Z,80.98
2023-04-16T21:33:33.807Z,81.16
2023-04-16T21:36:00.300Z,81.37
2023-04-16T21:38:26.731Z,81.44
2023-04-16T21:40:56.725Z,80.98
2023-04-16T21:43:23.420Z,81.89
2023-04-16T21:45:53.899Z,81.24
2023-04-16T21:48:20.950Z,81.37
2023-04-16T21:50:54.336Z,81.19
2023-04-16T21:53:20.701Z,81.60
2023-04-16T21:55:47.496Z,81.95
2023-04-16T21:58:15.692Z,82.30
2023-04-16T22:00:43.376Z,81.33
2023-04-16T22:03:12.402Z,80.97
2023-04-16T22:05:39.022Z,81.28
2023-04-16T22:08:23.597Z,81.51
2023-04-16T22:10:51.297Z,81.32
2023-04-16T22:13:17.954Z,81.69
2023-04-16T22:15:46.681Z,81.39
2023-04-16T22:18:13.089Z,81.02
2023-04-16T22:20:39.804Z,80.68
2023-04-16T22:23:07.378Z,81.21
2023-04-16T22:25:34.924Z,81.41
2023-04-16T22:28:01.593Z,81.18
2023-04-16T22:30:30.526Z,81.55
2023-04-16T22:32:57.795Z,81.43
2023-04-16T22:35:24.187Z,81.05
2023-04-16T22:37:50.567Z,80.88
2023-04-16T22:40:17.594Z,81.78
2023-04-16T22:42:44.038Z,81.84
2023-04-16T22:45:10.739Z,81.72
2023-04-16T22:47:37.209Z,81.54
2023-04-16T22:50:04.982Z,81.88
2023-04-16T22:52:31.351Z,81.10
2023-04-16T22:54:57.719Z,81.80
2023-04-16T22:57:25.673Z,82.00
2023-04-16T22:59:52.997Z,81.66
2023-04-16T23:02:19.953Z,81.29
2023-04-16T23:04:47.786Z,81.38
2023-04-16T23:07:14.874Z,81.32
2023-04-16T23:09:41.303Z,81.59
2023-04-16T23:12:07.740Z,81.28
2023-04-16T23:14:34.540Z,81.97
2023-04-16T23:17:01.361Z,82.28
2023-04-16T23:19:27.764Z,82.34
2023-04-16T23:21:54.125Z,82.13
2023-04-16T23:24:20.566Z,81.91
2023-04-16T23:26:47.964Z,82.55
2023-04-16T23:29:14.336Z,82.34
2023-04-16T23:31:40.879Z,82.37
2023-04-16T23:34:07.895Z,82.69
2023-04-16T23:36:34.226Z,82.78
2023-04-16T23:39:00.775Z,83.33
2023-04-16T23:41:27.155Z,83.45
2023-04-16T23:43:53.492Z,83.22
2023-04-16T23:46:20.407Z,83.73
2023-04-16T23:48:46.820Z,83.83
2023-04-16T23:51:13.254Z,83.65
2023-04-16T23:53:40.788Z,83.92
2023-04-16T23:56:07.786Z,84.31
2023-04-16T23:58:34.202Z,85.15
